Terminal Aerodrome Forecast
Issued by NWS Mt. Holly, NJ

Home | Current Version | Previous Version | Text Only | Print | Product List | Glossary On
Versions: 1 2 3 4 5 6 7 8 9 10 11 12 13 14 15 16 17 18 19 20 21 22 23 24 25 26 27 28 29 30 31 32
000
FTUS41 KPHI 261700 RRA
TAFRDG
TAF
KRDG 261743Z 2618/2718 03012G19KT 3SM -SN SCT018 OVC025
      TEMPO 2618/2622 1SM -SN BKN012 OVC020
     FM262200 03012G20KT 1SM -SN OVC006
     FM270300 36013G22KT 2SM -SN BR OVC012
     FM271400 33015G25KT 4SM -SN BLSN OVC020=

USA.gov is the U.S. government's official web portal to all federal, state and local government web resources and services.